QFA471 YSSY-YMML
Flight info
| Callsign | QFA471 |
|---|---|
| Flight time | 1h 43m |
| Altitude | 38000 |
| Route | WOL H65 LEECE Q29 ML |
| Aircraft | A320/M-SDE3FGHIRWY/LB1 |
Departure
| Time | 2026-05-07 08:37 |
|---|---|
| Airport | Sydney Kingsford Smith International Airport (YSSY) |
Arrival
| Time | 2026-05-07 10:20 |
|---|---|
| Airport | Melbourne Airport (YMML) |
| Time | Latitude | Longitude | Altitude | Speed | Heading |
|---|---|---|---|---|---|
| 2026-05-07 07:50 | -33.93150 | 151.17857 | 30 ft | 0 kts | 191° |
| 2026-05-07 08:18 | -33.93139 | 151.17859 | 35 ft | 4 kts | 190° |
| 2026-05-07 08:19 | -33.93112 | 151.17865 | 30 ft | 4 kts | 190° |
| 2026-05-07 08:19 | -33.93086 | 151.17873 | 30 ft | 4 kts | 211° |
| 2026-05-07 08:19 | -33.93075 | 151.17888 | 30 ft | 0 kts | 280° |
| 2026-05-07 08:24 | -33.93074 | 151.17881 | 30 ft | 2 kts | 280° |
| 2026-05-07 08:24 | -33.93068 | 151.17842 | 30 ft | 7 kts | 279° |
| 2026-05-07 08:24 | -33.93062 | 151.17800 | 30 ft | 9 kts | 279° |
| 2026-05-07 08:25 | -33.93041 | 151.17722 | 30 ft | 11 kts | 298° |
| 2026-05-07 08:25 | -33.93004 | 151.17588 | 30 ft | 14 kts | 280° |
| 2026-05-07 08:25 | -33.92992 | 151.17509 | 30 ft | 15 kts | 281° |
| 2026-05-07 08:25 | -33.93024 | 151.17411 | 30 ft | 11 kts | 178° |
| 2026-05-07 08:26 | -33.93173 | 151.17450 | 30 ft | 16 kts | 168° |
| 2026-05-07 08:26 | -33.93288 | 151.17480 | 30 ft | 18 kts | 168° |
| 2026-05-07 08:26 | -33.93409 | 151.17507 | 30 ft | 15 kts | 180° |
| 2026-05-07 08:27 | -33.93524 | 151.17513 | 29 ft | 17 kts | 168° |
| 2026-05-07 08:27 | -33.93595 | 151.17532 | 29 ft | 11 kts | 167° |
| 2026-05-07 08:27 | -33.93681 | 151.17555 | 29 ft | 14 kts | 168° |
| 2026-05-07 08:27 | -33.93778 | 151.17580 | 29 ft | 8 kts | 168° |
| 2026-05-07 08:28 | -33.93782 | 151.17581 | 29 ft | 0 kts | 168° |
| 2026-05-07 08:28 | -33.93793 | 151.17583 | 29 ft | 7 kts | 168° |
| 2026-05-07 08:28 | -33.93819 | 151.17590 | 29 ft | 5 kts | 168° |
| 2026-05-07 08:29 | -33.93868 | 151.17625 | 29 ft | 10 kts | 117° |
| 2026-05-07 08:29 | -33.93854 | 151.17715 | 30 ft | 12 kts | 73° |
| 2026-05-07 08:29 | -33.93827 | 151.17825 | 30 ft | 15 kts | 74° |
| 2026-05-07 08:29 | -33.93796 | 151.17954 | 30 ft | 17 kts | 74° |
| 2026-05-07 08:30 | -33.93762 | 151.18105 | 30 ft | 20 kts | 74° |
| 2026-05-07 08:30 | -33.93725 | 151.18258 | 30 ft | 20 kts | 74° |
| 2026-05-07 08:30 | -33.93689 | 151.18417 | 30 ft | 14 kts | 74° |
| 2026-05-07 08:30 | -33.93670 | 151.18499 | 30 ft | 11 kts | 74° |
| 2026-05-07 08:31 | -33.93645 | 151.18598 | 30 ft | 14 kts | 72° |
| 2026-05-07 08:31 | -33.93624 | 151.18688 | 30 ft | 7 kts | 75° |
| 2026-05-07 08:31 | -33.93613 | 151.18756 | 30 ft | 9 kts | 94° |
| 2026-05-07 08:31 | -33.93634 | 151.18795 | 30 ft | 0 kts | 143° |
| 2026-05-07 08:32 | -33.93646 | 151.18804 | 29 ft | 6 kts | 153° |
| 2026-05-07 08:32 | -33.93689 | 151.18819 | 29 ft | 0 kts | 165° |
| 2026-05-07 08:34 | -33.93715 | 151.18828 | 27 ft | 9 kts | 165° |
| 2026-05-07 08:34 | -33.93786 | 151.18818 | 27 ft | 8 kts | 219° |
| 2026-05-07 08:34 | -33.93808 | 151.18762 | 26 ft | 0 kts | 253° |
| 2026-05-07 08:36 | -33.93858 | 151.18550 | 29 ft | 61 kts | 254° |
| 2026-05-07 08:36 | -33.94031 | 151.17816 | 29 ft | 118 kts | 255° |
| 2026-05-07 08:36 | -33.94298 | 151.16693 | 146 ft | 152 kts | 254° |
| 2026-05-07 08:37 | -33.94564 | 151.15437 | 777 ft | 157 kts | 257° |
| 2026-05-07 08:37 | -33.94791 | 151.14152 | 1579 ft | 155 kts | 254° |
| 2026-05-07 08:37 | -33.95303 | 151.13010 | 2181 ft | 167 kts | 221° |
| 2026-05-07 08:37 | -33.96399 | 151.12306 | 2547 ft | 191 kts | 210° |
| 2026-05-07 08:38 | -33.97684 | 151.11632 | 3073 ft | 210 kts | 208° |
| 2026-05-07 08:38 | -33.99078 | 151.10918 | 3798 ft | 223 kts | 207° |
| 2026-05-07 08:38 | -34.00522 | 151.10169 | 4666 ft | 230 kts | 205° |
| 2026-05-07 08:38 | -34.01994 | 151.09391 | 5189 ft | 233 kts | 205° |
| 2026-05-07 08:39 | -34.03471 | 151.08587 | 6189 ft | 234 kts | 205° |
| 2026-05-07 08:39 | -34.04955 | 151.07760 | 7107 ft | 237 kts | 205° |
| 2026-05-07 08:39 | -34.06465 | 151.06916 | 8010 ft | 241 kts | 205° |
| 2026-05-07 08:39 | -34.07994 | 151.06059 | 8877 ft | 245 kts | 205° |
| 2026-05-07 08:40 | -34.09556 | 151.05186 | 9735 ft | 250 kts | 205° |
| 2026-05-07 08:40 | -34.11160 | 151.04285 | 10398 ft | 262 kts | 205° |
| 2026-05-07 08:40 | -34.12886 | 151.03316 | 10672 ft | 285 kts | 205° |
| 2026-05-07 08:40 | -34.14723 | 151.02288 | 11239 ft | 294 kts | 205° |
| 2026-05-07 08:41 | -34.16589 | 151.01239 | 11959 ft | 299 kts | 205° |
| 2026-05-07 08:41 | -34.18494 | 151.00164 | 12698 ft | 303 kts | 205° |
| 2026-05-07 08:41 | -34.20420 | 150.99082 | 13474 ft | 307 kts | 205° |
| 2026-05-07 08:41 | -34.22363 | 150.97990 | 14183 ft | 311 kts | 205° |
| 2026-05-07 08:42 | -34.24330 | 150.96882 | 14883 ft | 313 kts | 205° |
| 2026-05-07 08:42 | -34.26305 | 150.95770 | 15614 ft | 313 kts | 205° |
| 2026-05-07 08:42 | -34.28283 | 150.94659 | 16380 ft | 313 kts | 205° |
| 2026-05-07 08:42 | -34.30241 | 150.93558 | 17150 ft | 314 kts | 205° |
| 2026-05-07 08:43 | -34.32220 | 150.92446 | 17915 ft | 314 kts | 205° |
| 2026-05-07 08:43 | -34.34206 | 150.91329 | 18627 ft | 315 kts | 204° |
| 2026-05-07 08:43 | -34.36190 | 150.90206 | 19319 ft | 315 kts | 204° |
| 2026-05-07 08:43 | -34.38166 | 150.89084 | 20058 ft | 313 kts | 204° |
| 2026-05-07 08:44 | -34.40137 | 150.87969 | 20808 ft | 312 kts | 203° |
| 2026-05-07 08:44 | -34.42100 | 150.86861 | 21527 ft | 311 kts | 202° |
| 2026-05-07 08:44 | -34.44058 | 150.85758 | 22240 ft | 310 kts | 202° |
| 2026-05-07 08:44 | -34.46010 | 150.84653 | 22956 ft | 309 kts | 202° |
| 2026-05-07 08:45 | -34.47959 | 150.83548 | 23647 ft | 309 kts | 202° |
| 2026-05-07 08:45 | -34.49905 | 150.82447 | 24183 ft | 310 kts | 202° |
| 2026-05-07 08:45 | -34.51861 | 150.81340 | 24643 ft | 312 kts | 202° |
| 2026-05-07 08:45 | -34.53831 | 150.80209 | 25077 ft | 316 kts | 204° |
| 2026-05-07 08:46 | -34.55685 | 150.78722 | 25494 ft | 324 kts | 214° |
| 2026-05-07 08:46 | -34.57261 | 150.76698 | 25903 ft | 337 kts | 225° |
| 2026-05-07 08:46 | -34.58651 | 150.74395 | 26311 ft | 340 kts | 225° |
| 2026-05-07 08:46 | -34.60052 | 150.72067 | 26739 ft | 343 kts | 225° |
| 2026-05-07 08:47 | -34.61466 | 150.69721 | 27048 ft | 346 kts | 226° |
| 2026-05-07 08:47 | -34.62891 | 150.67358 | 27466 ft | 347 kts | 226° |
| 2026-05-07 08:47 | -34.64322 | 150.64986 | 27878 ft | 349 kts | 226° |
| 2026-05-07 08:47 | -34.65760 | 150.62596 | 28286 ft | 352 kts | 226° |
| 2026-05-07 08:48 | -34.67209 | 150.60187 | 28684 ft | 354 kts | 226° |
| 2026-05-07 08:48 | -34.68663 | 150.57769 | 29060 ft | 357 kts | 226° |
| 2026-05-07 08:48 | -34.70131 | 150.55328 | 29464 ft | 359 kts | 226° |
| 2026-05-07 08:48 | -34.71589 | 150.52897 | 29860 ft | 361 kts | 226° |
| 2026-05-07 08:49 | -34.73072 | 150.50418 | 30238 ft | 364 kts | 226° |
| 2026-05-07 08:49 | -34.74567 | 150.47920 | 30545 ft | 367 kts | 227° |
| 2026-05-07 08:49 | -34.76077 | 150.45399 | 30815 ft | 370 kts | 227° |
| 2026-05-07 08:49 | -34.77597 | 150.42859 | 31087 ft | 374 kts | 227° |
| 2026-05-07 08:50 | -34.79133 | 150.40290 | 31379 ft | 377 kts | 228° |
| 2026-05-07 08:50 | -34.80676 | 150.37709 | 31709 ft | 378 kts | 228° |
| 2026-05-07 08:50 | -34.82226 | 150.35112 | 32104 ft | 379 kts | 229° |
| 2026-05-07 08:50 | -34.83772 | 150.32523 | 32492 ft | 379 kts | 229° |
| 2026-05-07 08:51 | -34.85323 | 150.29922 | 32897 ft | 380 kts | 229° |
| 2026-05-07 08:51 | -34.86871 | 150.27319 | 33299 ft | 380 kts | 229° |
| 2026-05-07 08:51 | -34.88424 | 150.24708 | 33665 ft | 381 kts | 230° |
| 2026-05-07 08:51 | -34.89980 | 150.22094 | 34048 ft | 382 kts | 230° |
| 2026-05-07 08:52 | -34.91539 | 150.19475 | 34386 ft | 382 kts | 230° |
| 2026-05-07 08:52 | -34.93098 | 150.16857 | 34717 ft | 383 kts | 230° |
| 2026-05-07 08:52 | -34.94663 | 150.14229 | 35013 ft | 384 kts | 231° |
| 2026-05-07 08:52 | -34.96229 | 150.11592 | 35315 ft | 384 kts | 231° |
| 2026-05-07 08:53 | -34.97798 | 150.08940 | 35601 ft | 385 kts | 231° |
| 2026-05-07 08:53 | -34.99366 | 150.06286 | 35889 ft | 386 kts | 232° |
| 2026-05-07 08:53 | -35.00930 | 150.03637 | 36169 ft | 387 kts | 232° |
| 2026-05-07 08:53 | -35.02508 | 150.00967 | 36443 ft | 388 kts | 232° |
| 2026-05-07 08:54 | -35.04088 | 149.98294 | 36709 ft | 389 kts | 233° |
| 2026-05-07 08:54 | -35.05673 | 149.95614 | 36968 ft | 389 kts | 233° |
| 2026-05-07 08:54 | -35.07258 | 149.92934 | 37220 ft | 390 kts | 233° |
| 2026-05-07 08:54 | -35.08849 | 149.90242 | 37470 ft | 391 kts | 234° |
| 2026-05-07 08:55 | -35.10435 | 149.87552 | 37724 ft | 392 kts | 234° |
| 2026-05-07 08:55 | -35.12006 | 149.84880 | 37968 ft | 392 kts | 234° |
| 2026-05-07 08:55 | -35.13598 | 149.82170 | 38132 ft | 394 kts | 235° |
| 2026-05-07 08:55 | -35.15200 | 149.79440 | 38161 ft | 395 kts | 235° |
| 2026-05-07 08:56 | -35.18402 | 149.73977 | 38165 ft | 396 kts | 235° |
| 2026-05-07 08:56 | -35.21614 | 149.68507 | 38163 ft | 396 kts | 234° |
| 2026-05-07 08:57 | -35.24817 | 149.63033 | 38168 ft | 396 kts | 235° |
| 2026-05-07 08:57 | -35.28010 | 149.57559 | 38171 ft | 395 kts | 234° |
| 2026-05-07 08:58 | -35.31214 | 149.52076 | 38185 ft | 396 kts | 234° |
| 2026-05-07 08:58 | -35.34414 | 149.46592 | 38188 ft | 396 kts | 234° |
| 2026-05-07 08:59 | -35.37613 | 149.41104 | 38193 ft | 396 kts | 234° |
| 2026-05-07 08:59 | -35.40800 | 149.35619 | 38198 ft | 395 kts | 234° |
| 2026-05-07 09:00 | -35.43981 | 149.30130 | 38198 ft | 395 kts | 234° |
| 2026-05-07 09:00 | -35.47155 | 149.24637 | 38199 ft | 394 kts | 234° |
| 2026-05-07 09:01 | -35.50318 | 149.19161 | 38196 ft | 393 kts | 234° |
| 2026-05-07 09:01 | -35.53478 | 149.13684 | 38196 ft | 393 kts | 234° |
| 2026-05-07 09:02 | -35.56640 | 149.08201 | 38202 ft | 393 kts | 234° |
| 2026-05-07 09:02 | -35.59791 | 149.02717 | 38207 ft | 393 kts | 234° |
| 2026-05-07 09:03 | -35.62941 | 148.97234 | 38213 ft | 393 kts | 234° |
| 2026-05-07 09:03 | -35.66102 | 148.91730 | 38223 ft | 394 kts | 234° |
| 2026-05-07 09:04 | -35.69259 | 148.86225 | 38227 ft | 393 kts | 234° |
| 2026-05-07 09:04 | -35.72402 | 148.80723 | 38229 ft | 393 kts | 234° |
| 2026-05-07 09:05 | -35.75542 | 148.75220 | 38234 ft | 393 kts | 234° |
| 2026-05-07 09:05 | -35.78150 | 148.70640 | 38241 ft | 392 kts | 234° |
| 2026-05-07 09:06 | -35.81288 | 148.65136 | 38235 ft | 392 kts | 234° |
| 2026-05-07 09:06 | -35.84416 | 148.59634 | 38238 ft | 393 kts | 234° |
| 2026-05-07 09:07 | -35.87544 | 148.54111 | 38236 ft | 393 kts | 234° |
| 2026-05-07 09:07 | -35.90669 | 148.48576 | 38237 ft | 393 kts | 234° |
| 2026-05-07 09:08 | -35.93786 | 148.43041 | 38237 ft | 394 kts | 234° |
| 2026-05-07 09:08 | -35.96915 | 148.37490 | 38236 ft | 394 kts | 234° |
| 2026-05-07 09:09 | -36.00038 | 148.31923 | 38228 ft | 395 kts | 234° |
| 2026-05-07 09:09 | -36.03160 | 148.26349 | 38229 ft | 395 kts | 234° |
| 2026-05-07 09:10 | -36.06291 | 148.20757 | 38229 ft | 396 kts | 234° |
| 2026-05-07 09:10 | -36.09427 | 148.15145 | 38240 ft | 397 kts | 233° |
| 2026-05-07 09:11 | -36.12563 | 148.09526 | 38243 ft | 397 kts | 233° |
| 2026-05-07 09:11 | -36.15705 | 148.03904 | 38242 ft | 397 kts | 233° |
| 2026-05-07 09:12 | -36.18853 | 147.98271 | 38243 ft | 398 kts | 233° |
| 2026-05-07 09:12 | -36.22000 | 147.92633 | 38249 ft | 398 kts | 233° |
| 2026-05-07 09:13 | -36.25145 | 147.86991 | 38248 ft | 398 kts | 234° |
| 2026-05-07 09:13 | -36.28281 | 147.81343 | 38251 ft | 398 kts | 234° |
| 2026-05-07 09:14 | -36.31408 | 147.75694 | 38249 ft | 397 kts | 234° |
| 2026-05-07 09:14 | -36.34540 | 147.70040 | 38253 ft | 397 kts | 234° |
| 2026-05-07 09:15 | -36.37643 | 147.64426 | 38253 ft | 397 kts | 234° |
| 2026-05-07 09:15 | -36.40757 | 147.58771 | 38252 ft | 397 kts | 234° |
| 2026-05-07 09:16 | -36.43864 | 147.53113 | 38251 ft | 397 kts | 234° |
| 2026-05-07 09:16 | -36.46970 | 147.47455 | 38253 ft | 396 kts | 234° |
| 2026-05-07 09:17 | -36.50071 | 147.41790 | 38252 ft | 396 kts | 234° |
| 2026-05-07 09:17 | -36.53165 | 147.36124 | 38254 ft | 396 kts | 234° |
| 2026-05-07 09:18 | -36.56257 | 147.30463 | 38258 ft | 395 kts | 234° |
| 2026-05-07 09:18 | -36.59325 | 147.24851 | 38259 ft | 395 kts | 234° |
| 2026-05-07 09:19 | -36.62404 | 147.19203 | 38260 ft | 394 kts | 234° |
| 2026-05-07 09:19 | -36.65472 | 147.13558 | 38258 ft | 394 kts | 234° |
| 2026-05-07 09:20 | -36.68536 | 147.07911 | 38254 ft | 393 kts | 234° |
| 2026-05-07 09:20 | -36.71591 | 147.02270 | 38263 ft | 393 kts | 234° |
| 2026-05-07 09:21 | -36.74637 | 146.96626 | 38039 ft | 394 kts | 234° |
| 2026-05-07 09:21 | -36.76177 | 146.93773 | 37113 ft | 394 kts | 234° |
| 2026-05-07 09:21 | -36.77670 | 146.91000 | 36725 ft | 379 kts | 234° |
| 2026-05-07 09:22 | -36.79122 | 146.88303 | 36119 ft | 370 kts | 234° |
| 2026-05-07 09:22 | -36.80537 | 146.85675 | 35601 ft | 359 kts | 233° |
| 2026-05-07 09:22 | -36.81900 | 146.83140 | 35260 ft | 346 kts | 233° |
| 2026-05-07 09:22 | -36.83234 | 146.80661 | 34893 ft | 345 kts | 233° |
| 2026-05-07 09:23 | -36.84571 | 146.78176 | 34508 ft | 343 kts | 233° |
| 2026-05-07 09:23 | -36.85896 | 146.75715 | 34108 ft | 340 kts | 233° |
| 2026-05-07 09:23 | -36.87191 | 146.73309 | 33716 ft | 337 kts | 233° |
| 2026-05-07 09:23 | -36.88491 | 146.70889 | 33333 ft | 334 kts | 233° |
| 2026-05-07 09:24 | -36.89778 | 146.68490 | 32960 ft | 332 kts | 233° |
| 2026-05-07 09:24 | -36.91064 | 146.66091 | 32579 ft | 330 kts | 233° |
| 2026-05-07 09:24 | -36.92332 | 146.63720 | 32202 ft | 328 kts | 234° |
| 2026-05-07 09:24 | -36.93593 | 146.61362 | 31835 ft | 325 kts | 234° |
| 2026-05-07 09:25 | -36.94845 | 146.59020 | 31466 ft | 323 kts | 234° |
| 2026-05-07 09:25 | -36.96093 | 146.56683 | 31106 ft | 322 kts | 234° |
| 2026-05-07 09:25 | -36.97330 | 146.54367 | 30750 ft | 320 kts | 234° |
| 2026-05-07 09:25 | -36.98570 | 146.52048 | 30393 ft | 319 kts | 234° |
| 2026-05-07 09:26 | -36.99800 | 146.49747 | 30011 ft | 317 kts | 234° |
| 2026-05-07 09:26 | -37.01019 | 146.47457 | 29657 ft | 315 kts | 234° |
| 2026-05-07 09:26 | -37.02223 | 146.45191 | 29317 ft | 311 kts | 234° |
| 2026-05-07 09:26 | -37.03414 | 146.42947 | 28987 ft | 307 kts | 234° |
| 2026-05-07 09:27 | -37.04587 | 146.40731 | 28659 ft | 304 kts | 234° |
| 2026-05-07 09:27 | -37.05750 | 146.38534 | 28345 ft | 301 kts | 234° |
| 2026-05-07 09:27 | -37.08055 | 146.34190 | 27705 ft | 298 kts | 234° |
| 2026-05-07 09:28 | -37.09201 | 146.32037 | 27323 ft | 297 kts | 234° |
| 2026-05-07 09:28 | -37.10345 | 146.29890 | 26954 ft | 295 kts | 234° |
| 2026-05-07 09:28 | -37.11476 | 146.27758 | 26585 ft | 293 kts | 234° |
| 2026-05-07 09:28 | -37.12602 | 146.25629 | 26215 ft | 292 kts | 234° |
| 2026-05-07 09:29 | -37.13718 | 146.23514 | 25853 ft | 290 kts | 234° |
| 2026-05-07 09:29 | -37.14828 | 146.21409 | 25469 ft | 289 kts | 234° |
| 2026-05-07 09:29 | -37.15936 | 146.19308 | 25085 ft | 288 kts | 234° |
| 2026-05-07 09:29 | -37.17038 | 146.17221 | 24693 ft | 287 kts | 234° |
| 2026-05-07 09:30 | -37.18140 | 146.15134 | 24303 ft | 287 kts | 234° |
| 2026-05-07 09:30 | -37.19243 | 146.13045 | 23911 ft | 287 kts | 234° |
| 2026-05-07 09:30 | -37.20345 | 146.10956 | 23461 ft | 287 kts | 234° |
| 2026-05-07 09:30 | -37.21444 | 146.08868 | 23037 ft | 286 kts | 234° |
| 2026-05-07 09:31 | -37.22535 | 146.06792 | 22627 ft | 284 kts | 234° |
| 2026-05-07 09:31 | -37.23620 | 146.04729 | 22219 ft | 283 kts | 233° |
| 2026-05-07 09:31 | -37.24704 | 146.02668 | 21810 ft | 282 kts | 233° |
| 2026-05-07 09:31 | -37.25770 | 146.00637 | 21408 ft | 282 kts | 233° |
| 2026-05-07 09:32 | -37.26838 | 145.98600 | 21147 ft | 276 kts | 233° |
| 2026-05-07 09:32 | -37.27886 | 145.96591 | 21010 ft | 267 kts | 233° |
| 2026-05-07 09:32 | -37.28875 | 145.94694 | 20884 ft | 251 kts | 233° |
| 2026-05-07 09:32 | -37.29792 | 145.92935 | 20666 ft | 238 kts | 233° |
| 2026-05-07 09:33 | -37.30693 | 145.91240 | 20403 ft | 231 kts | 229° |
| 2026-05-07 09:33 | -37.31921 | 145.89986 | 20159 ft | 229 kts | 205° |
| 2026-05-07 09:33 | -37.33490 | 145.89653 | 19915 ft | 235 kts | 180° |
| 2026-05-07 09:33 | -37.35094 | 145.90433 | 19673 ft | 268 kts | 150° |
| 2026-05-07 09:34 | -37.36225 | 145.92437 | 19556 ft | 302 kts | 116° |
| 2026-05-07 09:34 | -37.36377 | 145.95162 | 19555 ft | 328 kts | 84° |
| 2026-05-07 09:34 | -37.35525 | 145.97883 | 19556 ft | 343 kts | 64° |
| 2026-05-07 09:34 | -37.34189 | 146.00394 | 19556 ft | 347 kts | 56° |
| 2026-05-07 09:35 | -37.32655 | 146.02751 | 19557 ft | 350 kts | 45° |
| 2026-05-07 09:35 | -37.30623 | 146.04353 | 19561 ft | 347 kts | 13° |
| 2026-05-07 09:35 | -37.28283 | 146.04611 | 19562 ft | 331 kts | 341° |
| 2026-05-07 09:35 | -37.26262 | 146.03522 | 19560 ft | 306 kts | 309° |
| 2026-05-07 09:36 | -37.25076 | 146.01509 | 19559 ft | 276 kts | 277° |
| 2026-05-07 09:36 | -37.24985 | 145.99249 | 19559 ft | 251 kts | 245° |
| 2026-05-07 09:36 | -37.25855 | 145.97427 | 19559 ft | 243 kts | 225° |
| 2026-05-07 09:36 | -37.27019 | 145.95884 | 19561 ft | 244 kts | 224° |
| 2026-05-07 09:37 | -37.28194 | 145.94348 | 19562 ft | 244 kts | 224° |
| 2026-05-07 09:37 | -37.29370 | 145.92813 | 19564 ft | 244 kts | 224° |
| 2026-05-07 09:37 | -37.30548 | 145.91277 | 19560 ft | 244 kts | 224° |
| 2026-05-07 09:37 | -37.31708 | 145.89606 | 19209 ft | 260 kts | 230° |
| 2026-05-07 09:38 | -37.32747 | 145.87732 | 18812 ft | 263 kts | 233° |
| 2026-05-07 09:38 | -37.33730 | 145.85786 | 18394 ft | 265 kts | 234° |
| 2026-05-07 09:38 | -37.34702 | 145.83821 | 17981 ft | 264 kts | 234° |
| 2026-05-07 09:38 | -37.35676 | 145.81875 | 17589 ft | 263 kts | 233° |
| 2026-05-07 09:39 | -37.36661 | 145.79936 | 17199 ft | 263 kts | 233° |
| 2026-05-07 09:39 | -37.37651 | 145.78007 | 16815 ft | 263 kts | 232° |
| 2026-05-07 09:39 | -37.38650 | 145.76082 | 16433 ft | 263 kts | 232° |
| 2026-05-07 09:39 | -37.39642 | 145.74182 | 16054 ft | 263 kts | 232° |
| 2026-05-07 09:40 | -37.40659 | 145.72238 | 15663 ft | 263 kts | 232° |
| 2026-05-07 09:40 | -37.41665 | 145.70311 | 15279 ft | 263 kts | 232° |
| 2026-05-07 09:40 | -37.42654 | 145.68415 | 14898 ft | 263 kts | 232° |
| 2026-05-07 09:40 | -37.43660 | 145.66488 | 14509 ft | 263 kts | 232° |
| 2026-05-07 09:41 | -37.44665 | 145.64565 | 14127 ft | 263 kts | 232° |
| 2026-05-07 09:41 | -37.45684 | 145.62615 | 13733 ft | 263 kts | 231° |
| 2026-05-07 09:41 | -37.46676 | 145.60726 | 13332 ft | 262 kts | 231° |
| 2026-05-07 09:41 | -37.47675 | 145.58828 | 12972 ft | 259 kts | 232° |
| 2026-05-07 09:42 | -37.48667 | 145.56940 | 12560 ft | 259 kts | 231° |
| 2026-05-07 09:42 | -37.49649 | 145.55065 | 12205 ft | 256 kts | 231° |
| 2026-05-07 09:42 | -37.50632 | 145.53190 | 11812 ft | 256 kts | 231° |
| 2026-05-07 09:42 | -37.51604 | 145.51335 | 11463 ft | 255 kts | 231° |
| 2026-05-07 09:43 | -37.52572 | 145.49483 | 11158 ft | 253 kts | 231° |
| 2026-05-07 09:43 | -37.53543 | 145.47628 | 10868 ft | 251 kts | 231° |
| 2026-05-07 09:43 | -37.54503 | 145.45800 | 10512 ft | 250 kts | 231° |
| 2026-05-07 09:43 | -37.55462 | 145.43973 | 10188 ft | 249 kts | 231° |
| 2026-05-07 09:44 | -37.56410 | 145.42158 | 9855 ft | 247 kts | 232° |
| 2026-05-07 09:44 | -37.57350 | 145.40356 | 9311 ft | 245 kts | 232° |
| 2026-05-07 09:44 | -37.58280 | 145.38569 | 8695 ft | 241 kts | 233° |
| 2026-05-07 09:44 | -37.59191 | 145.36823 | 8249 ft | 238 kts | 233° |
| 2026-05-07 09:45 | -37.60097 | 145.35088 | 7908 ft | 232 kts | 233° |
| 2026-05-07 09:45 | -37.60968 | 145.33415 | 7359 ft | 228 kts | 234° |
| 2026-05-07 09:45 | -37.61843 | 145.31733 | 6712 ft | 230 kts | 235° |
| 2026-05-07 09:45 | -37.62738 | 145.30012 | 6028 ft | 231 kts | 235° |
| 2026-05-07 09:46 | -37.63619 | 145.28315 | 5419 ft | 230 kts | 236° |
| 2026-05-07 09:46 | -37.64447 | 145.26626 | 4975 ft | 223 kts | 243° |
| 2026-05-07 09:46 | -37.64869 | 145.24774 | 4632 ft | 216 kts | 259° |
| 2026-05-07 09:46 | -37.65049 | 145.22913 | 4501 ft | 214 kts | 258° |
| 2026-05-07 09:47 | -37.65241 | 145.21069 | 4376 ft | 214 kts | 258° |
| 2026-05-07 09:47 | -37.65439 | 145.19199 | 4247 ft | 214 kts | 259° |
| 2026-05-07 09:47 | -37.65630 | 145.17373 | 4110 ft | 205 kts | 259° |
| 2026-05-07 09:47 | -37.65811 | 145.15626 | 3980 ft | 197 kts | 259° |
| 2026-05-07 09:48 | -37.65986 | 145.13939 | 3839 ft | 192 kts | 259° |
| 2026-05-07 09:48 | -37.66163 | 145.12249 | 3657 ft | 189 kts | 259° |
| 2026-05-07 09:48 | -37.66331 | 145.10632 | 3610 ft | 184 kts | 259° |
| 2026-05-07 09:48 | -37.66487 | 145.09098 | 3559 ft | 167 kts | 259° |
| 2026-05-07 09:49 | -37.66633 | 145.07657 | 3535 ft | 165 kts | 258° |
| 2026-05-07 09:49 | -37.66781 | 145.06223 | 3498 ft | 164 kts | 259° |
| 2026-05-07 09:49 | -37.66925 | 145.04815 | 3419 ft | 160 kts | 259° |
| 2026-05-07 09:49 | -37.67068 | 145.03426 | 3347 ft | 159 kts | 259° |
| 2026-05-07 09:50 | -37.67127 | 145.02030 | 3182 ft | 156 kts | 266° |
| 2026-05-07 09:50 | -37.67098 | 145.00688 | 2986 ft | 151 kts | 268° |
| 2026-05-07 09:50 | -37.67044 | 144.99375 | 2794 ft | 149 kts | 269° |
| 2026-05-07 09:50 | -37.66979 | 144.98075 | 2592 ft | 148 kts | 270° |
| 2026-05-07 09:51 | -37.66909 | 144.96785 | 2389 ft | 147 kts | 270° |
| 2026-05-07 09:51 | -37.66837 | 144.95488 | 2188 ft | 149 kts | 270° |
| 2026-05-07 09:51 | -37.66765 | 144.94216 | 1982 ft | 141 kts | 271° |
| 2026-05-07 09:51 | -37.66697 | 144.93025 | 1804 ft | 134 kts | 271° |
| 2026-05-07 09:52 | -37.66631 | 144.91861 | 1612 ft | 134 kts | 272° |
| 2026-05-07 09:52 | -37.66564 | 144.90684 | 1423 ft | 134 kts | 272° |
| 2026-05-07 09:52 | -37.66496 | 144.89513 | 1217 ft | 136 kts | 272° |
| 2026-05-07 09:52 | -37.66427 | 144.88313 | 1022 ft | 137 kts | 273° |
| 2026-05-07 09:53 | -37.66354 | 144.87110 | 847 ft | 138 kts | 272° |
| 2026-05-07 09:53 | -37.66285 | 144.85898 | 685 ft | 139 kts | 272° |
| 2026-05-07 09:53 | -37.66246 | 144.84689 | 458 ft | 138 kts | 272° |
| 2026-05-07 09:53 | -37.66161 | 144.83511 | 963 ft | 125 kts | 274° |
| 2026-05-07 09:54 | -37.66117 | 144.82806 | 1378 ft | 121 kts | 272° |
| 2026-05-07 09:54 | -37.66057 | 144.81439 | 2151 ft | 114 kts | 269° |
| 2026-05-07 09:54 | -37.66033 | 144.80784 | 2470 ft | 115 kts | 269° |
| 2026-05-07 09:54 | -37.65954 | 144.79616 | 2668 ft | 146 kts | 271° |
| 2026-05-07 09:55 | -37.65826 | 144.78280 | 3566 ft | 153 kts | 272° |
| 2026-05-07 09:55 | -37.65649 | 144.76811 | 4245 ft | 193 kts | 272° |
| 2026-05-07 09:55 | -37.65417 | 144.74962 | 4793 ft | 233 kts | 274° |
| 2026-05-07 09:55 | -37.65104 | 144.71902 | 4919 ft | 295 kts | 271° |
| 2026-05-07 09:56 | -37.65115 | 144.70122 | 4921 ft | 316 kts | 259° |
| 2026-05-07 09:56 | -37.65895 | 144.67427 | 4933 ft | 343 kts | 238° |
| 2026-05-07 09:56 | -37.67289 | 144.65008 | 6131 ft | 333 kts | 233° |
| 2026-05-07 09:56 | -37.68645 | 144.62724 | 7460 ft | 320 kts | 232° |
| 2026-05-07 09:57 | -37.70189 | 144.60616 | 7730 ft | 340 kts | 217° |
| 2026-05-07 09:57 | -37.72317 | 144.59097 | 7882 ft | 360 kts | 207° |
| 2026-05-07 09:57 | -37.74495 | 144.57727 | 9315 ft | 342 kts | 206° |
| 2026-05-07 09:57 | -37.76589 | 144.56414 | 10725 ft | 327 kts | 206° |
| 2026-05-07 09:58 | -37.78580 | 144.55165 | 12019 ft | 312 kts | 206° |
| 2026-05-07 09:58 | -37.80485 | 144.53972 | 13299 ft | 299 kts | 207° |
| 2026-05-07 09:58 | -37.82343 | 144.52808 | 13990 ft | 308 kts | 207° |
| 2026-05-07 09:58 | -37.84402 | 144.51519 | 13363 ft | 351 kts | 207° |
| 2026-05-07 09:59 | -37.86543 | 144.50174 | 12948 ft | 381 kts | 207° |
| 2026-05-07 09:59 | -37.88868 | 144.48713 | 14102 ft | 362 kts | 207° |
| 2026-05-07 09:59 | -37.91044 | 144.47348 | 15137 ft | 335 kts | 207° |
| 2026-05-07 09:59 | -37.93057 | 144.46086 | 16123 ft | 312 kts | 207° |
| 2026-05-07 10:00 | -37.94949 | 144.44903 | 17108 ft | 299 kts | 207° |
| 2026-05-07 10:00 | -37.96805 | 144.43746 | 18097 ft | 296 kts | 207° |
| 2026-05-07 10:00 | -37.98858 | 144.42903 | 17706 ft | 335 kts | 190° |
| 2026-05-07 10:00 | -38.01328 | 144.43120 | 17207 ft | 377 kts | 171° |
| 2026-05-07 10:01 | -38.03712 | 144.44474 | 16743 ft | 383 kts | 152° |
| 2026-05-07 10:01 | -38.05648 | 144.46830 | 16291 ft | 389 kts | 135° |
| 2026-05-07 10:01 | -38.07077 | 144.49749 | 15833 ft | 395 kts | 120° |
| 2026-05-07 10:01 | -38.07713 | 144.53171 | 15387 ft | 405 kts | 100° |
| 2026-05-07 10:02 | -38.07455 | 144.56742 | 14950 ft | 409 kts | 83° |
| 2026-05-07 10:02 | -38.06811 | 144.60230 | 14521 ft | 403 kts | 82° |
| 2026-05-07 10:02 | -38.06149 | 144.63656 | 14091 ft | 396 kts | 82° |
| 2026-05-07 10:02 | -38.05491 | 144.67021 | 13625 ft | 390 kts | 82° |
| 2026-05-07 10:03 | -38.04839 | 144.70328 | 13147 ft | 384 kts | 82° |
| 2026-05-07 10:03 | -38.04193 | 144.73600 | 12678 ft | 379 kts | 82° |
| 2026-05-07 10:03 | -38.03552 | 144.76837 | 12029 ft | 380 kts | 82° |
| 2026-05-07 10:03 | -38.02909 | 144.80092 | 11354 ft | 381 kts | 82° |
| 2026-05-07 10:04 | -38.02267 | 144.83354 | 10691 ft | 381 kts | 82° |
| 2026-05-07 10:04 | -38.01623 | 144.86616 | 10026 ft | 381 kts | 82° |
| 2026-05-07 10:04 | -38.00988 | 144.89864 | 9316 ft | 380 kts | 82° |
| 2026-05-07 10:04 | -38.00387 | 144.93120 | 8609 ft | 378 kts | 82° |
| 2026-05-07 10:05 | -37.99817 | 144.96369 | 7922 ft | 377 kts | 82° |
| 2026-05-07 10:05 | -37.99280 | 144.99613 | 7252 ft | 375 kts | 82° |
| 2026-05-07 10:05 | -37.98773 | 145.02845 | 6584 ft | 374 kts | 82° |
| 2026-05-07 10:05 | -37.98295 | 145.06076 | 5922 ft | 371 kts | 82° |
| 2026-05-07 10:06 | -37.97840 | 145.09197 | 5977 ft | 348 kts | 82° |
| 2026-05-07 10:06 | -37.97403 | 145.12122 | 5994 ft | 329 kts | 82° |
| 2026-05-07 10:06 | -37.96981 | 145.14906 | 5990 ft | 313 kts | 82° |
| 2026-05-07 10:06 | -37.96575 | 145.17557 | 5998 ft | 304 kts | 82° |
| 2026-05-07 10:07 | -37.96170 | 145.20180 | 5996 ft | 303 kts | 82° |
| 2026-05-07 10:07 | -37.95760 | 145.22790 | 5998 ft | 303 kts | 79° |
| 2026-05-07 10:07 | -37.94907 | 145.25234 | 6004 ft | 306 kts | 53° |
| 2026-05-07 10:07 | -37.93337 | 145.27003 | 5908 ft | 305 kts | 27° |
| 2026-05-07 10:08 | -37.91376 | 145.28012 | 5401 ft | 305 kts | 13° |
| 2026-05-07 10:08 | -37.89338 | 145.28812 | 4908 ft | 308 kts | 12° |
| 2026-05-07 10:08 | -37.87278 | 145.29601 | 4405 ft | 311 kts | 12° |
| 2026-05-07 10:08 | -37.85198 | 145.30378 | 3928 ft | 311 kts | 12° |
| 2026-05-07 10:09 | -37.83120 | 145.31148 | 3434 ft | 312 kts | 12° |
| 2026-05-07 10:09 | -37.81046 | 145.31910 | 3052 ft | 308 kts | 12° |
| 2026-05-07 10:09 | -37.79061 | 145.32643 | 2999 ft | 293 kts | 12° |
| 2026-05-07 10:09 | -37.77161 | 145.33354 | 3006 ft | 277 kts | 12° |
| 2026-05-07 10:10 | -37.75343 | 145.33705 | 3011 ft | 252 kts | 348° |
| 2026-05-07 10:10 | -37.73806 | 145.33015 | 3010 ft | 222 kts | 316° |
| 2026-05-07 10:10 | -37.72954 | 145.31579 | 3009 ft | 198 kts | 283° |
| 2026-05-07 10:10 | -37.72626 | 145.29908 | 3015 ft | 195 kts | 276° |
| 2026-05-07 10:11 | -37.72397 | 145.28272 | 3013 ft | 182 kts | 275° |
| 2026-05-07 10:11 | -37.72192 | 145.26779 | 3032 ft | 164 kts | 275° |
| 2026-05-07 10:11 | -37.71997 | 145.25426 | 3012 ft | 154 kts | 275° |
| 2026-05-07 10:11 | -37.71805 | 145.24093 | 2635 ft | 152 kts | 276° |
| 2026-05-07 10:12 | -37.71633 | 145.22801 | 2523 ft | 148 kts | 275° |
| 2026-05-07 10:12 | -37.71470 | 145.21511 | 2516 ft | 148 kts | 275° |
| 2026-05-07 10:12 | -37.71301 | 145.20233 | 2519 ft | 148 kts | 275° |
| 2026-05-07 10:12 | -37.71121 | 145.18961 | 2524 ft | 147 kts | 275° |
| 2026-05-07 10:13 | -37.70938 | 145.17693 | 2519 ft | 147 kts | 275° |
| 2026-05-07 10:13 | -37.70755 | 145.16423 | 2524 ft | 147 kts | 275° |
| 2026-05-07 10:13 | -37.70577 | 145.15196 | 2525 ft | 143 kts | 275° |
| 2026-05-07 10:13 | -37.70394 | 145.13964 | 2530 ft | 142 kts | 275° |
| 2026-05-07 10:14 | -37.70208 | 145.12743 | 2531 ft | 141 kts | 275° |
| 2026-05-07 10:14 | -37.70023 | 145.11524 | 2529 ft | 141 kts | 275° |
| 2026-05-07 10:14 | -37.69839 | 145.10310 | 2531 ft | 140 kts | 275° |
| 2026-05-07 10:14 | -37.69661 | 145.09097 | 2533 ft | 143 kts | 275° |
| 2026-05-07 10:15 | -37.69487 | 145.07852 | 2525 ft | 144 kts | 275° |
| 2026-05-07 10:15 | -37.69318 | 145.06602 | 2532 ft | 145 kts | 275° |
| 2026-05-07 10:15 | -37.69099 | 145.05355 | 2522 ft | 147 kts | 282° |
| 2026-05-07 10:15 | -37.68681 | 145.04164 | 2509 ft | 147 kts | 290° |
| 2026-05-07 10:16 | -37.68196 | 145.03047 | 2645 ft | 145 kts | 290° |
| 2026-05-07 10:16 | -37.67749 | 145.01920 | 2773 ft | 143 kts | 287° |
| 2026-05-07 10:16 | -37.67417 | 145.00753 | 2745 ft | 140 kts | 279° |
| 2026-05-07 10:16 | -37.67213 | 144.99558 | 2699 ft | 138 kts | 275° |
| 2026-05-07 10:17 | -37.67072 | 144.98361 | 2597 ft | 138 kts | 272° |
| 2026-05-07 10:17 | -37.66968 | 144.97164 | 2444 ft | 137 kts | 271° |
| 2026-05-07 10:17 | -37.66883 | 144.95967 | 2273 ft | 137 kts | 271° |
| 2026-05-07 10:17 | -37.66807 | 144.94777 | 2101 ft | 139 kts | 271° |
| 2026-05-07 10:18 | -37.66733 | 144.93558 | 1905 ft | 140 kts | 270° |
| 2026-05-07 10:18 | -37.66660 | 144.92326 | 1718 ft | 141 kts | 271° |
| 2026-05-07 10:18 | -37.66588 | 144.91086 | 1518 ft | 143 kts | 272° |
| 2026-05-07 10:18 | -37.66515 | 144.89828 | 1293 ft | 142 kts | 272° |
| 2026-05-07 10:19 | -37.66445 | 144.88608 | 1075 ft | 138 kts | 273° |
| 2026-05-07 10:19 | -37.66378 | 144.87406 | 892 ft | 137 kts | 272° |
| 2026-05-07 10:19 | -37.66327 | 144.86211 | 680 ft | 137 kts | 273° |
| 2026-05-07 10:19 | -37.66245 | 144.85011 | 505 ft | 136 kts | 272° |
| 2026-05-07 10:20 | -37.66178 | 144.83826 | 425 ft | 126 kts | 273° |
| 2026-05-07 10:20 | -37.66119 | 144.82927 | 407 ft | 75 kts | 275° |
| 2026-05-07 10:20 | -37.66095 | 144.82512 | 400 ft | 39 kts | 275° |
| 2026-05-07 10:20 | -37.66087 | 144.82311 | 399 ft | 18 kts | 256° |
| 2026-05-07 10:21 | -37.66169 | 144.82234 | 399 ft | 15 kts | 198° |
| 2026-05-07 10:21 | -37.66297 | 144.82220 | 392 ft | 19 kts | 176° |
| 2026-05-07 10:21 | -37.66388 | 144.82321 | 384 ft | 22 kts | 111° |
| 2026-05-07 10:21 | -37.66417 | 144.82533 | 381 ft | 23 kts | 103° |
| 2026-05-07 10:22 | -37.66438 | 144.82671 | 386 ft | 9 kts | 95° |
| 2026-05-07 10:22 | -37.66440 | 144.82696 | 386 ft | 2 kts | 96° |
| 2026-05-07 10:22 | -37.66442 | 144.82738 | 386 ft | 7 kts | 93° |
| 2026-05-07 10:22 | -37.66446 | 144.82816 | 385 ft | 11 kts | 94° |
| 2026-05-07 10:23 | -37.66451 | 144.82884 | 387 ft | 7 kts | 95° |
| 2026-05-07 10:23 | -37.66457 | 144.82952 | 389 ft | 8 kts | 95° |
| 2026-05-07 10:23 | -37.66461 | 144.83023 | 392 ft | 7 kts | 92° |
| 2026-05-07 10:23 | -37.66463 | 144.83086 | 393 ft | 7 kts | 93° |
| 2026-05-07 10:24 | -37.66466 | 144.83149 | 397 ft | 8 kts | 94° |
| 2026-05-07 10:24 | -37.66471 | 144.83238 | 399 ft | 12 kts | 94° |
| 2026-05-07 10:24 | -37.66478 | 144.83343 | 402 ft | 12 kts | 94° |
| 2026-05-07 10:24 | -37.66485 | 144.83455 | 404 ft | 14 kts | 94° |
| 2026-05-07 10:25 | -37.66490 | 144.83553 | 404 ft | 6 kts | 95° |
| 2026-05-07 10:25 | -37.66494 | 144.83608 | 404 ft | 8 kts | 94° |
| 2026-05-07 10:25 | -37.66499 | 144.83704 | 405 ft | 12 kts | 94° |
| 2026-05-07 10:25 | -37.66504 | 144.83830 | 404 ft | 16 kts | 92° |
| 2026-05-07 10:26 | -37.66512 | 144.83981 | 404 ft | 19 kts | 97° |
| 2026-05-07 10:26 | -37.66525 | 144.84156 | 404 ft | 21 kts | 94° |
| 2026-05-07 10:26 | -37.66524 | 144.84342 | 403 ft | 20 kts | 79° |
| 2026-05-07 10:26 | -37.66500 | 144.84529 | 405 ft | 22 kts | 82° |
| 2026-05-07 10:27 | -37.66479 | 144.84726 | 408 ft | 23 kts | 81° |
| 2026-05-07 10:27 | -37.66462 | 144.84873 | 409 ft | 9 kts | 82° |
| 2026-05-07 10:27 | -37.66451 | 144.84958 | 409 ft | 11 kts | 81° |
| 2026-05-07 10:27 | -37.66498 | 144.85044 | 407 ft | 16 kts | 161° |
| 2026-05-07 10:28 | -37.66602 | 144.85063 | 402 ft | 11 kts | 174° |
| 2026-05-07 10:28 | -37.66660 | 144.85074 | 399 ft | 4 kts | 171° |
| 2026-05-07 10:28 | -37.66691 | 144.85050 | 398 ft | 6 kts | 254° |
| 2026-05-07 10:28 | -37.66691 | 144.85022 | 400 ft | 3 kts | 268° |
| 2026-05-07 10:29 | -37.66692 | 144.85010 | 401 ft | 1 kts | 264° |
| 2026-05-07 10:29 | -37.66693 | 144.85002 | 401 ft | 1 kts | 263° |
| 2026-05-07 10:29 | -37.66693 | 144.84998 | 401 ft | 0 kts | 263° |